sensor_id;sensor_type;location;lat;lon;timestamp;pressure;altitude;pressure_sealevel;temperature;humidity
54978;BME280;40873;47.522;19.106;2024-02-26T00:01:17;99531.06;;;9.14;100.00
54978;BME280;40873;47.522;19.106;2024-02-26T00:03:55;99522.22;;;9.15;100.00
54978;BME280;40873;47.522;19.106;2024-02-26T00:06:26;99527.59;;;9.14;100.00
54978;BME280;40873;47.522;19.106;2024-02-26T00:08:53;99530.00;;;9.17;100.00
54978;BME280;40873;47.522;19.106;2024-02-26T00:11:21;99528.66;;;9.11;100.00
54978;BME280;40873;47.522;19.106;2024-02-26T00:13:47;99531.28;;;9.11;100.00
54978;BME280;40873;47.522;19.106;2024-02-26T00:16:15;99523.69;;;9.06;100.00
54978;BME280;40873;47.522;19.106;2024-02-26T00:18:42;99524.94;;;9.01;100.00
54978;BME280;40873;47.522;19.106;2024-02-26T00:21:10;99512.84;;;8.98;100.00
54978;BME280;40873;47.522;19.106;2024-02-26T00:23:37;99513.16;;;9.06;100.00
54978;BME280;40873;47.522;19.106;2024-02-26T00:26:04;99515.69;;;9.08;100.00
54978;BME280;40873;47.522;19.106;2024-02-26T00:28:31;99514.53;;;8.99;100.00
54978;BME280;40873;47.522;19.106;2024-02-26T00:30:58;99516.19;;;9.00;100.00
54978;BME280;40873;47.522;19.106;2024-02-26T00:33:25;99520.19;;;8.93;100.00
54978;BME280;40873;47.522;19.106;2024-02-26T00:35:52;99512.84;;;8.98;100.00
54978;BME280;40873;47.522;19.106;2024-02-26T00:38:19;99510.50;;;8.94;100.00
54978;BME280;40873;47.522;19.106;2024-02-26T00:40:47;99510.63;;;8.92;100.00
54978;BME280;40873;47.522;19.106;2024-02-26T00:43:14;99505.28;;;9.06;100.00
54978;BME280;40873;47.522;19.106;2024-02-26T00:45:41;99503.38;;;9.09;100.00
54978;BME280;40873;47.522;19.106;2024-02-26T00:48:08;99500.75;;;9.09;100.00
54978;BME280;40873;47.522;19.106;2024-02-26T00:50:36;99499.78;;;9.10;100.00
54978;BME280;40873;47.522;19.106;2024-02-26T00:53:03;99506.13;;;9.07;100.00
54978;BME280;40873;47.522;19.106;2024-02-26T00:55:30;99503.38;;;9.09;100.00
54978;BME280;40873;47.522;19.106;2024-02-26T00:57:57;99499.91;;;9.08;100.00
54978;BME280;40873;47.522;19.106;2024-02-26T01:00:24;99502.53;;;9.08;100.00
54978;BME280;40873;47.522;19.106;2024-02-26T01:02:51;99494.03;;;9.04;100.00
54978;BME280;40873;47.522;19.106;2024-02-26T01:05:19;99494.22;;;9.01;100.00
54978;BME280;40873;47.522;19.106;2024-02-26T01:07:46;99482.22;;;8.97;100.00
54978;BME280;40873;47.522;19.106;2024-02-26T01:10:13;99493.66;;;8.96;100.00
54978;BME280;40873;47.522;19.106;2024-02-26T01:12:40;99493.88;;;8.93;100.00
54978;BME280;40873;47.522;19.106;2024-02-26T01:15:07;99488.72;;;8.92;100.00
54978;BME280;40873;47.522;19.106;2024-02-26T01:17:35;99491.56;;;8.89;100.00
54978;BME280;40873;47.522;19.106;2024-02-26T01:20:04;99486.28;;;8.89;100.00
54978;BME280;40873;47.522;19.106;2024-02-26T01:22:31;99488.91;;;8.89;100.00
54978;BME280;40873;47.522;19.106;2024-02-26T01:24:58;99480.31;;;8.87;100.00
54978;BME280;40873;47.522;19.106;2024-02-26T01:27:25;99487.47;;;8.85;100.00
54978;BME280;40873;47.522;19.106;2024-02-26T01:29:54;99478.91;;;8.81;100.00
54978;BME280;40873;47.522;19.106;2024-02-26T01:32:21;99481.53;;;8.81;100.00
54978;BME280;40873;47.522;19.106;2024-02-26T01:34:48;99483.22;;;8.82;100.00
54978;BME280;40873;47.522;19.106;2024-02-26T01:37:15;99484.84;;;8.85;100.00
54978;BME280;40873;47.522;19.106;2024-02-26T01:39:43;99475.56;;;8.79;100.00
54978;BME280;40873;47.522;19.106;2024-02-26T01:42:12;99469.47;;;8.78;100.00
54978;BME280;40873;47.522;19.106;2024-02-26T01:44:39;99472.94;;;8.79;100.00
54978;BME280;40873;47.522;19.106;2024-02-26T01:47:08;99475.56;;;8.79;100.00
54978;BME280;40873;47.522;19.106;2024-02-26T01:49:37;99470.41;;;8.77;100.00
54978;BME280;40873;47.522;19.106;2024-02-26T01:52:07;99468.63;;;8.78;100.00
54978;BME280;40873;47.522;19.106;2024-02-26T01:54:37;99468.63;;;8.78;100.00
54978;BME280;40873;47.522;19.106;2024-02-26T01:57:06;99474.06;;;8.75;100.00
54978;BME280;40873;47.522;19.106;2024-02-26T01:59:34;99471.25;;;8.78;100.00
54978;BME280;40873;47.522;19.106;2024-02-26T02:02:05;99467.66;;;8.79;100.00
54978;BME280;40873;47.522;19.106;2024-02-26T02:04:34;99471.13;;;8.79;100.00
54978;BME280;40873;47.522;19.106;2024-02-26T02:07:01;99463.66;;;8.73;100.00
54978;BME280;40873;47.522;19.106;2024-02-26T02:09:30;99462.59;;;8.76;100.00
54978;BME280;40873;47.522;19.106;2024-02-26T02:11:58;99466.16;;;8.75;100.00
54978;BME280;40873;47.522;19.106;2024-02-26T02:14:25;99459.13;;;8.75;100.00
54978;BME280;40873;47.522;19.106;2024-02-26T02:16:52;99468.06;;;8.73;100.00
54978;BME280;40873;47.522;19.106;2024-02-26T02:19:19;99471.44;;;8.75;100.00
54978;BME280;40873;47.522;19.106;2024-02-26T02:21:46;99463.53;;;8.75;100.00
54978;BME280;40873;47.522;19.106;2024-02-26T02:24:13;99461.97;;;8.72;100.00
54978;BME280;40873;47.522;19.106;2024-02-26T02:26:40;99461.88;;;8.74;100.00
54978;BME280;40873;47.522;19.106;2024-02-26T02:29:07;99466.16;;;8.75;100.00
54978;BME280;40873;47.522;19.106;2024-02-26T02:31:36;99461.75;;;8.75;100.00
54978;BME280;40873;47.522;19.106;2024-02-26T02:34:05;99459.22;;;8.74;100.00
54978;BME280;40873;47.522;19.106;2024-02-26T02:36:32;99466.94;;;8.77;100.00
54978;BME280;40873;47.522;19.106;2024-02-26T02:38:59;99460.72;;;8.78;100.00
54978;BME280;40873;47.522;19.106;2024-02-26T02:41:26;99470.41;;;8.77;100.00
54978;BME280;40873;47.522;19.106;2024-02-26T02:43:54;99459.88;;;8.77;100.00
54978;BME280;40873;47.522;19.106;2024-02-26T02:46:21;99465.03;;;8.79;100.00
54978;BME280;40873;47.522;19.106;2024-02-26T02:48:48;99464.50;;;8.74;100.00
54978;BME280;40873;47.522;19.106;2024-02-26T02:51:15;99467.13;;;8.74;100.00
54978;BME280;40873;47.522;19.106;2024-02-26T02:53:42;99466.38;;;8.72;100.00
54978;BME280;40873;47.522;19.106;2024-02-26T02:56:09;99472.59;;;8.71;100.00
54978;BME280;40873;47.522;19.106;2024-02-26T02:58:36;99472.59;;;8.71;100.00
54978;BME280;40873;47.522;19.106;2024-02-26T03:01:03;99472.50;;;8.72;100.00
54978;BME280;40873;47.522;19.106;2024-02-26T03:03:31;99471.53;;;8.73;100.00
54978;BME280;40873;47.522;19.106;2024-02-26T03:05:58;99471.53;;;8.73;100.00
54978;BME280;40873;47.522;19.106;2024-02-26T03:08:25;99469.66;;;8.75;100.00
54978;BME280;40873;47.522;19.106;2024-02-26T03:10:52;99466.16;;;8.75;100.00
54978;BME280;40873;47.522;19.106;2024-02-26T03:13:20;99466.94;;;8.77;100.00
54978;BME280;40873;47.522;19.106;2024-02-26T03:15:47;99463.47;;;8.76;100.00
54978;BME280;40873;47.522;19.106;2024-02-26T03:18:14;99465.22;;;8.76;100.00
54978;BME280;40873;47.522;19.106;2024-02-26T03:20:41;99459.34;;;8.72;100.00
54978;BME280;40873;47.522;19.106;2024-02-26T03:23:08;99457.66;;;8.71;100.00
54978;BME280;40873;47.522;19.106;2024-02-26T03:25:42;99460.41;;;8.70;100.00
54978;BME280;40873;47.522;19.106;2024-02-26T03:28:09;99457.78;;;8.70;100.00
54978;BME280;40873;47.522;19.106;2024-02-26T03:30:36;99464.72;;;8.71;100.00
54978;BME280;40873;47.522;19.106;2024-02-26T03:33:03;99452.50;;;8.70;100.00
54978;BME280;40873;47.522;19.106;2024-02-26T03:35:30;99457.78;;;8.70;100.00
54978;BME280;40873;47.522;19.106;2024-02-26T03:37:58;99452.69;;;8.67;100.00
54978;BME280;40873;47.522;19.106;2024-02-26T03:40:26;99457.00;;;8.68;100.00
54978;BME280;40873;47.522;19.106;2024-02-26T03:42:53;99454.38;;;8.68;100.00
54978;BME280;40873;47.522;19.106;2024-02-26T03:45:20;99459.75;;;8.66;100.00
54978;BME280;40873;47.522;19.106;2024-02-26T03:47:48;99452.25;;;8.60;100.00
54978;BME280;40873;47.522;19.106;2024-02-26T03:50:15;99450.69;;;8.58;100.00
54978;BME280;40873;47.522;19.106;2024-02-26T03:52:43;99442.91;;;8.56;100.00
54978;BME280;40873;47.522;19.106;2024-02-26T03:55:10;99440.38;;;8.55;100.00
54978;BME280;40873;47.522;19.106;2024-02-26T03:57:37;99440.28;;;8.56;100.00
54978;BME280;40873;47.522;19.106;2024-02-26T04:00:04;99441.13;;;8.57;100.00
54978;BME280;40873;47.522;19.106;2024-02-26T04:02:32;99447.22;;;8.57;100.00
54978;BME280;40873;47.522;19.106;2024-02-26T04:04:59;99442.91;;;8.56;100.00
54978;BME280;40873;47.522;19.106;2024-02-26T04:07:26;99440.28;;;8.56;100.00
54978;BME280;40873;47.522;19.106;2024-02-26T04:09:53;99441.31;;;8.54;100.00
54978;BME280;40873;47.522;19.106;2024-02-26T04:12:20;99446.56;;;8.54;100.00
54978;BME280;40873;47.522;19.106;2024-02-26T04:14:48;99441.31;;;8.54;100.00
54978;BME280;40873;47.522;19.106;2024-02-26T04:17:16;99449.09;;;8.55;100.00
54978;BME280;40873;47.522;19.106;2024-02-26T04:19:43;99449.00;;;8.57;100.00
54978;BME280;40873;47.522;19.106;2024-02-26T04:22:10;99442.91;;;8.56;100.00
54978;BME280;40873;47.522;19.106;2024-02-26T04:24:37;99436.88;;;8.54;100.00
54978;BME280;40873;47.522;19.106;2024-02-26T04:27:04;99446.47;;;8.55;100.00
54978;BME280;40873;47.522;19.106;2024-02-26T04:29:31;99453.31;;;8.58;100.00
54978;BME280;40873;47.522;19.106;2024-02-26T04:31:58;99459.72;;;8.54;100.00
54978;BME280;40873;47.522;19.106;2024-02-26T04:34:25;99446.78;;;8.50;100.00
54978;BME280;40873;47.522;19.106;2024-02-26T04:36:55;99447.63;;;8.51;100.00
54978;BME280;40873;47.522;19.106;2024-02-26T04:39:22;99440.69;;;8.50;100.00
54978;BME280;40873;47.522;19.106;2024-02-26T04:41:49;99440.03;;;8.46;100.00
54978;BME280;40873;47.522;19.106;2024-02-26T04:44:16;99441.94;;;8.44;100.00
54978;BME280;40873;47.522;19.106;2024-02-26T04:46:43;99440.25;;;8.43;100.00
54978;BME280;40873;47.522;19.106;2024-02-26T04:49:10;99442.78;;;8.45;100.00
54978;BME280;40873;47.522;19.106;2024-02-26T04:51:37;99446.34;;;8.44;100.00
54978;BME280;40873;47.522;19.106;2024-02-26T04:54:04;99438.34;;;8.45;100.00
54978;BME280;40873;47.522;19.106;2024-02-26T04:56:32;99430.69;;;8.42;100.00
54978;BME280;40873;47.522;19.106;2024-02-26T04:58:59;99429.06;;;8.40;100.00
54978;BME280;40873;47.522;19.106;2024-02-26T05:01:26;99420.47;;;8.38;100.00
54978;BME280;40873;47.522;19.106;2024-02-26T05:03:53;99421.56;;;8.34;100.00
54978;BME280;40873;47.522;19.106;2024-02-26T05:06:20;99427.63;;;8.36;100.00
54978;BME280;40873;47.522;19.106;2024-02-26T05:08:50;99425.97;;;8.33;100.00
54978;BME280;40873;47.522;19.106;2024-02-26T05:11:17;99427.75;;;8.33;100.00
54978;BME280;40873;47.522;19.106;2024-02-26T05:13:45;99420.09;;;8.30;100.00
54978;BME280;40873;47.522;19.106;2024-02-26T05:16:12;99429.78;;;8.29;100.00
54978;BME280;40873;47.522;19.106;2024-02-26T05:18:39;99432.69;;;8.24;100.00
54978;BME280;40873;47.522;19.106;2024-02-26T05:21:06;99434.88;;;8.18;100.00
54978;BME280;40873;47.522;19.106;2024-02-26T05:23:33;99436.53;;;8.19;100.00
54978;BME280;40873;47.522;19.106;2024-02-26T05:26:01;99434.75;;;8.19;100.00
54978;BME280;40873;47.522;19.106;2024-02-26T05:28:27;99430.16;;;8.23;100.00
54978;BME280;40873;47.522;19.106;2024-02-26T05:30:55;99432.97;;;8.20;100.00
54978;BME280;40873;47.522;19.106;2024-02-26T05:33:22;99433.75;;;8.22;100.00
54978;BME280;40873;47.522;19.106;2024-02-26T05:35:50;99434.59;;;8.22;100.00
54978;BME280;40873;47.522;19.106;2024-02-26T05:38:17;99435.31;;;8.24;100.00
54978;BME280;40873;47.522;19.106;2024-02-26T05:40:44;99423.75;;;8.27;100.00
54978;BME280;40873;47.522;19.106;2024-02-26T05:43:15;99421.78;;;8.31;100.00
54978;BME280;40873;47.522;19.106;2024-02-26T05:45:43;99424.28;;;8.32;100.00
54978;BME280;40873;47.522;19.106;2024-02-26T05:48:10;99438.13;;;8.36;100.00
54978;BME280;40873;47.522;19.106;2024-02-26T05:50:37;99438.97;;;8.36;100.00
54978;BME280;40873;47.522;19.106;2024-02-26T05:53:04;99426.44;;;8.40;100.00
54978;BME280;40873;47.522;19.106;2024-02-26T05:55:31;99428.91;;;8.43;100.00
54978;BME280;40873;47.522;19.106;2024-02-26T05:57:58;99430.06;;;8.51;100.00
54978;BME280;40873;47.522;19.106;2024-02-26T06:00:25;99427.22;;;8.55;100.00
54978;BME280;40873;47.522;19.106;2024-02-26T06:02:52;99433.25;;;8.57;100.00
54978;BME280;40873;47.522;19.106;2024-02-26T06:05:22;99440.91;;;8.60;100.00
54978;BME280;40873;47.522;19.106;2024-02-26T06:07:53;99435.47;;;8.63;100.00
54978;BME280;40873;47.522;19.106;2024-02-26T06:10:21;99440.50;;;8.66;100.00
54978;BME280;40873;47.522;19.106;2024-02-26T06:12:48;99435.13;;;8.67;100.00
54978;BME280;40873;47.522;19.106;2024-02-26T06:15:15;99436.50;;;8.73;100.00
54978;BME280;40873;47.522;19.106;2024-02-26T06:17:42;99442.50;;;8.75;100.00
54978;BME280;40873;47.522;19.106;2024-02-26T06:20:10;99446.72;;;8.77;100.00
54978;BME280;40873;47.522;19.106;2024-02-26T06:22:42;99446.50;;;8.81;100.00
54978;BME280;40873;47.522;19.106;2024-02-26T06:25:10;99456.75;;;8.85;100.00
54978;BME280;40873;47.522;19.106;2024-02-26T06:27:36;99458.19;;;8.89;100.00
54978;BME280;40873;47.522;19.106;2024-02-26T06:30:04;99464.09;;;8.93;100.00
54978;BME280;40873;47.522;19.106;2024-02-26T06:32:31;99462.22;;;8.95;100.00
54978;BME280;40873;47.522;19.106;2024-02-26T06:34:59;99469.81;;;8.99;100.00
54978;BME280;40873;47.522;19.106;2024-02-26T06:37:26;99470.41;;;9.03;100.00
54978;BME280;40873;47.522;19.106;2024-02-26T06:39:53;99459.59;;;9.07;100.00
54978;BME280;40873;47.522;19.106;2024-02-26T06:42:20;99457.28;;;9.16;100.00
54978;BME280;40873;47.522;19.106;2024-02-26T06:44:47;99459.06;;;9.15;100.00
54978;BME280;40873;47.522;19.106;2024-02-26T06:47:14;99458.34;;;9.26;100.00
54978;BME280;40873;47.522;19.106;2024-02-26T06:49:41;99465.28;;;9.27;100.00
54978;BME280;40873;47.522;19.106;2024-02-26T06:52:08;99459.06;;;9.28;100.00
54978;BME280;40873;47.522;19.106;2024-02-26T06:54:35;99446.63;;;9.30;100.00
54978;BME280;40873;47.522;19.106;2024-02-26T06:57:02;99455.28;;;9.32;100.00
54978;BME280;40873;47.522;19.106;2024-02-26T06:59:30;99453.56;;;9.44;100.00
54978;BME280;40873;47.522;19.106;2024-02-26T07:01:57;99456.00;;;9.47;100.00
54978;BME280;40873;47.522;19.106;2024-02-26T07:04:24;99456.31;;;9.55;100.00
54978;BME280;40873;47.522;19.106;2024-02-26T07:06:51;99452.19;;;9.64;100.00
54978;BME280;40873;47.522;19.106;2024-02-26T07:09:18;99460.16;;;9.75;100.00
54978;BME280;40873;47.522;19.106;2024-02-26T07:11:45;99458.38;;;9.75;100.00
54978;BME280;40873;47.522;19.106;2024-02-26T07:14:12;99451.19;;;9.77;100.00
54978;BME280;40873;47.522;19.106;2024-02-26T07:16:39;99451.84;;;9.81;100.00
54978;BME280;40873;47.522;19.106;2024-02-26T07:19:06;99455.06;;;9.84;100.00
54978;BME280;40873;47.522;19.106;2024-02-26T07:21:34;99459.19;;;9.88;100.00
54978;BME280;40873;47.522;19.106;2024-02-26T07:24:01;99453.81;;;9.90;100.00
54978;BME280;40873;47.522;19.106;2024-02-26T07:26:28;99461.75;;;10.01;100.00
54978;BME280;40873;47.522;19.106;2024-02-26T07:28:57;99464.59;;;10.11;100.00
54978;BME280;40873;47.522;19.106;2024-02-26T07:31:24;99459.19;;;10.25;100.00
54978;BME280;40873;47.522;19.106;2024-02-26T07:33:52;99462.63;;;10.50;100.00
54978;BME280;40873;47.522;19.106;2024-02-26T07:36:19;99462.50;;;10.64;100.00
54978;BME280;40873;47.522;19.106;2024-02-26T07:38:46;99460.31;;;10.69;100.00
54978;BME280;40873;47.522;19.106;2024-02-26T07:41:15;99469.19;;;10.68;100.00
54978;BME280;40873;47.522;19.106;2024-02-26T07:43:43;99474.47;;;10.68;100.00
54978;BME280;40873;47.522;19.106;2024-02-26T07:46:11;99476.03;;;10.70;100.00
54978;BME280;40873;47.522;19.106;2024-02-26T07:48:39;99472.78;;;10.67;100.00
54978;BME280;40873;47.522;19.106;2024-02-26T07:51:06;99469.81;;;10.72;100.00
54978;BME280;40873;47.522;19.106;2024-02-26T07:53:34;99467.66;;;10.77;100.00
54978;BME280;40873;47.522;19.106;2024-02-26T07:56:00;99475.34;;;10.80;100.00
54978;BME280;40873;47.522;19.106;2024-02-26T07:58:28;99478.97;;;10.90;100.00
54978;BME280;40873;47.522;19.106;2024-02-26T08:00:54;99465.44;;;10.94;100.00
54978;BME280;40873;47.522;19.106;2024-02-26T08:03:25;99477.41;;;10.87;100.00
54978;BME280;40873;47.522;19.106;2024-02-26T08:05:52;99486.41;;;10.85;100.00
54978;BME280;40873;47.522;19.106;2024-02-26T08:08:20;99492.03;;;10.80;100.00
54978;BME280;40873;47.522;19.106;2024-02-26T08:10:46;99491.06;;;10.81;100.00
54978;BME280;40873;47.522;19.106;2024-02-26T08:13:14;99494.03;;;10.65;100.00
54978;BME280;40873;47.522;19.106;2024-02-26T08:15:41;99495.50;;;10.81;100.00
54978;BME280;40873;47.522;19.106;2024-02-26T08:18:09;99489.91;;;10.96;100.00
54978;BME280;40873;47.522;19.106;2024-02-26T08:20:36;99493.56;;;11.07;100.00
54978;BME280;40873;47.522;19.106;2024-02-26T08:23:04;99490.16;;;11.05;100.00
54978;BME280;40873;47.522;19.106;2024-02-26T08:25:31;99490.91;;;11.07;100.00
54978;BME280;40873;47.522;19.106;2024-02-26T08:27:58;99492.59;;;11.19;100.00
54978;BME280;40873;47.522;19.106;2024-02-26T08:30:25;99492.38;;;11.22;100.00
54978;BME280;40873;47.522;19.106;2024-02-26T08:32:53;99487.81;;;11.24;100.00
54978;BME280;40873;47.522;19.106;2024-02-26T08:35:20;99492.03;;;11.27;100.00
54978;BME280;40873;47.522;19.106;2024-02-26T08:37:47;99490.44;;;11.24;100.00
54978;BME280;40873;47.522;19.106;2024-02-26T08:40:15;99492.97;;;11.25;100.00
54978;BME280;40873;47.522;19.106;2024-02-26T08:42:42;99486.13;;;11.23;100.00
54978;BME280;40873;47.522;19.106;2024-02-26T08:45:09;99491.66;;;11.31;100.00
54978;BME280;40873;47.522;19.106;2024-02-26T08:47:37;99485.66;;;11.29;100.00
54978;BME280;40873;47.522;19.106;2024-02-26T08:50:04;99493.38;;;11.43;100.00
54978;BME280;40873;47.522;19.106;2024-02-26T08:52:32;99496.84;;;11.44;100.00
54978;BME280;40873;47.522;19.106;2024-02-26T08:55:00;99495.38;;;11.40;100.00
54978;BME280;40873;47.522;19.106;2024-02-26T08:57:27;99496.81;;;11.33;100.00
54978;BME280;40873;47.522;19.106;2024-02-26T08:59:54;99488.91;;;11.21;100.00
54978;BME280;40873;47.522;19.106;2024-02-26T09:02:22;99494.31;;;11.20;100.00
54978;BME280;40873;47.522;19.106;2024-02-26T09:04:48;99496.34;;;11.28;100.00
54978;BME280;40873;47.522;19.106;2024-02-26T09:07:18;99500.41;;;11.32;100.00
54978;BME280;40873;47.522;19.106;2024-02-26T09:09:45;99503.19;;;11.30;100.00
54978;BME280;40873;47.522;19.106;2024-02-26T09:12:12;99504.28;;;11.28;100.00
54978;BME280;40873;47.522;19.106;2024-02-26T09:14:39;99508.94;;;11.24;100.00
54978;BME280;40873;47.522;19.106;2024-02-26T09:17:06;99510.63;;;11.25;100.00
54978;BME280;40873;47.522;19.106;2024-02-26T09:19:34;99508.34;;;11.20;100.00
54978;BME280;40873;47.522;19.106;2024-02-26T09:22:01;99506.06;;;11.27;100.00
54978;BME280;40873;47.522;19.106;2024-02-26T09:24:28;99503.44;;;11.38;100.00
54978;BME280;40873;47.522;19.106;2024-02-26T09:26:56;99501.03;;;11.46;100.00
54978;BME280;40873;47.522;19.106;2024-02-26T09:29:23;99509.34;;;11.64;100.00
54978;BME280;40873;47.522;19.106;2024-02-26T09:31:50;99506.09;;;11.61;100.00
54978;BME280;40873;47.522;19.106;2024-02-26T09:34:17;99516.19;;;11.56;100.00
54978;BME280;40873;47.522;19.106;2024-02-26T09:36:44;99505.63;;;11.67;100.00
54978;BME280;40873;47.522;19.106;2024-02-26T09:39:11;99512.25;;;11.84;100.00
54978;BME280;40873;47.522;19.106;2024-02-26T09:41:39;99506.00;;;11.85;100.00
54978;BME280;40873;47.522;19.106;2024-02-26T09:44:06;99514.78;;;11.85;100.00
54978;BME280;40873;47.522;19.106;2024-02-26T09:46:34;99514.16;;;11.82;100.00
54978;BME280;40873;47.522;19.106;2024-02-26T09:49:01;99513.81;;;11.97;100.00
54978;BME280;40873;47.522;19.106;2024-02-26T09:51:29;99523.03;;;12.14;100.00
54978;BME280;40873;47.522;19.106;2024-02-26T09:53:59;99529.50;;;12.21;100.00
54978;BME280;40873;47.522;19.106;2024-02-26T09:56:30;99521.84;;;11.96;100.00
54978;BME280;40873;47.522;19.106;2024-02-26T09:58:59;99523.56;;;11.97;100.00
54978;BME280;40873;47.522;19.106;2024-02-26T10:01:27;99527.84;;;12.09;100.00
54978;BME280;40873;47.522;19.106;2024-02-26T10:03:57;99527.88;;;11.98;100.00
54978;BME280;40873;47.522;19.106;2024-02-26T10:06:26;99530.97;;;12.03;100.00
54978;BME280;40873;47.522;19.106;2024-02-26T10:09:03;99522.81;;;12.06;100.00
54978;BME280;40873;47.522;19.106;2024-02-26T10:11:33;99521.50;;;12.00;100.00
54978;BME280;40873;47.522;19.106;2024-02-26T10:14:03;99531.47;;;11.97;100.00
54978;BME280;40873;47.522;19.106;2024-02-26T10:16:30;99514.88;;;12.06;100.00
54978;BME280;40873;47.522;19.106;2024-02-26T10:18:57;99520.53;;;12.01;100.00
54978;BME280;40873;47.522;19.106;2024-02-26T10:21:26;99521.50;;;12.12;100.00
54978;BME280;40873;47.522;19.106;2024-02-26T10:23:54;99512.72;;;12.11;100.00
54978;BME280;40873;47.522;19.106;2024-02-26T10:26:22;99514.63;;;12.09;100.00
54978;BME280;40873;47.522;19.106;2024-02-26T10:28:49;99511.75;;;12.01;100.00
54978;BME280;40873;47.522;19.106;2024-02-26T10:31:21;99509.25;;;11.99;100.00
54978;BME280;40873;47.522;19.106;2024-02-26T10:33:48;99517.97;;;12.22;100.00
54978;BME280;40873;47.522;19.106;2024-02-26T10:36:16;99510.09;;;12.54;100.00
54978;BME280;40873;47.522;19.106;2024-02-26T10:38:43;99513.00;;;12.72;100.00
54978;BME280;40873;47.522;19.106;2024-02-26T10:41:13;99512.88;;;13.48;100.00
54978;BME280;40873;47.522;19.106;2024-02-26T10:43:42;99502.00;;;14.12;100.00
54978;BME280;40873;47.522;19.106;2024-02-26T10:46:10;99508.25;;;14.11;100.00
54978;BME280;40873;47.522;19.106;2024-02-26T10:48:38;99498.53;;;14.31;100.00
54978;BME280;40873;47.522;19.106;2024-02-26T10:51:06;99497.72;;;14.40;100.00
54978;BME280;40873;47.522;19.106;2024-02-26T10:53:37;99499.00;;;14.65;100.00
54978;BME280;40873;47.522;19.106;2024-02-26T10:56:06;99493.97;;;14.91;100.00
54978;BME280;40873;47.522;19.106;2024-02-26T10:58:33;99495.66;;;14.63;100.00
54978;BME280;40873;47.522;19.106;2024-02-26T11:01:01;99493.06;;;14.32;100.00
54978;BME280;40873;47.522;19.106;2024-02-26T11:03:31;99488.81;;;14.60;100.00
54978;BME280;40873;47.522;19.106;2024-02-26T11:06:03;99483.66;;;14.68;100.00
54978;BME280;40873;47.522;19.106;2024-02-26T11:08:31;99477.09;;;14.82;100.00
54978;BME280;40873;47.522;19.106;2024-02-26T11:10:59;99483.78;;;14.86;100.00
54978;BME280;40873;47.522;19.106;2024-02-26T11:13:28;99484.78;;;14.75;100.00
54978;BME280;40873;47.522;19.106;2024-02-26T11:16:01;99477.34;;;14.79;100.00
54978;BME280;40873;47.522;19.106;2024-02-26T11:18:29;99481.97;;;14.96;100.00
54978;BME280;40873;47.522;19.106;2024-02-26T11:20:58;99483.72;;;15.15;100.00
54978;BME280;40873;47.522;19.106;2024-02-26T11:23:26;99482.19;;;15.22;100.00
54978;BME280;40873;47.522;19.106;2024-02-26T11:25:55;99486.25;;;15.26;100.00
54978;BME280;40873;47.522;19.106;2024-02-26T11:28:27;99492.16;;;15.01;100.00
54978;BME280;40873;47.522;19.106;2024-02-26T11:30:57;99494.78;;;15.20;100.00
54978;BME280;40873;47.522;19.106;2024-02-26T11:33:26;99489.56;;;15.38;100.00
54978;BME280;40873;47.522;19.106;2024-02-26T11:35:55;99482.25;;;15.03;100.00
54978;BME280;40873;47.522;19.106;2024-02-26T11:38:24;99485.88;;;14.92;100.00
54978;BME280;40873;47.522;19.106;2024-02-26T11:40:53;99477.97;;;15.29;100.00
54978;BME280;40873;47.522;19.106;2024-02-26T11:43:49;99482.78;;;15.73;100.00
54978;BME280;40873;47.522;19.106;2024-02-26T11:49:35;99486.25;;;16.46;100.00
54978;BME280;40873;47.522;19.106;2024-02-26T11:52:06;99491.53;;;17.35;100.00
54978;BME280;40873;47.522;19.106;2024-02-26T11:57:38;99488.28;;;17.49;100.00
54978;BME280;40873;47.522;19.106;2024-02-26T12:05:20;99481.88;;;16.09;100.00
54978;BME280;40873;47.522;19.106;2024-02-26T12:08:05;99485.63;;;15.52;100.00
54978;BME280;40873;47.522;19.106;2024-02-26T12:10:39;99486.22;;;15.36;100.00
54978;BME280;40873;47.522;19.106;2024-02-26T12:13:16;99480.25;;;15.15;100.00
54978;BME280;40873;47.522;19.106;2024-02-26T12:15:56;99483.34;;;15.00;100.00
54978;BME280;40873;47.522;19.106;2024-02-26T12:18:25;99483.03;;;15.13;100.00
54978;BME280;40873;47.522;19.106;2024-02-26T12:21:02;99479.97;;;15.18;100.00
54978;BME280;40873;47.522;19.106;2024-02-26T12:23:30;99473.56;;;15.11;100.00
54978;BME280;40873;47.522;19.106;2024-02-26T12:26:01;99476.22;;;14.52;100.00
54978;BME280;40873;47.522;19.106;2024-02-26T12:28:33;99477.59;;;14.27;100.00
54978;BME280;40873;47.522;19.106;2024-02-26T12:31:00;99476.13;;;14.54;100.00
54978;BME280;40873;47.522;19.106;2024-02-26T12:33:28;99468.69;;;14.77;100.00
54978;BME280;40873;47.522;19.106;2024-02-26T12:35:56;99466.56;;;15.10;100.00
54978;BME280;40873;47.522;19.106;2024-02-26T12:38:26;99473.25;;;15.14;100.00
54978;BME280;40873;47.522;19.106;2024-02-26T12:40:54;99465.84;;;15.17;100.00
54978;BME280;40873;47.522;19.106;2024-02-26T12:43:21;99474.13;;;15.04;100.00
54978;BME280;40873;47.522;19.106;2024-02-26T12:45:48;99468.38;;;14.99;100.00
54978;BME280;40873;47.522;19.106;2024-02-26T12:48:15;99469.50;;;15.16;100.00
54978;BME280;40873;47.522;19.106;2024-02-26T12:50:46;99464.97;;;15.26;100.00
54978;BME280;40873;47.522;19.106;2024-02-26T12:53:17;99471.56;;;15.22;100.00
54978;BME280;40873;47.522;19.106;2024-02-26T12:55:45;99471.59;;;15.13;100.00
54978;BME280;40873;47.522;19.106;2024-02-26T12:58:13;99473.38;;;15.22;100.00
54978;BME280;40873;47.522;19.106;2024-02-26T13:00:41;99468.53;;;15.54;100.00